Huvudsida
METAR-TAF:

METAR-TAF

Flygplatser :

Elkhart-Morton County Airport

Elkhart, Kansas, USA

latitud: 37-00N, longitud: 101-54W, höjd: 1099 m

Aktuellt väderrapport

Denna rapport gjordes för 23 minuter sedan, klockan 10:55 UTC
Vind 6 kt från väst/sydväst
Temperatur -1°C
Fuktighet 74%
Tryck 1029 hPa
Sikt: 16.1 km
Klar himmel

METAR: KEHA 191055Z AUTO 24006KT 10SM CLR M01/M05 A3040 RMK AO2 T10121055

Tid: 05:18 (11:18 UTC)


TAF: saknas

Aktuella väderrapporter och prognoser från 4000 flygplatser (METAR- och TAF-rapporter).

De tillgängliga stationerna syns som gula och röda prickar på kartan.

För musen över prickarna för att se namnen på stationerna.

Klicka sedan för att få väderrapporter och prognoser.

För att ändra kartan: Klicka på de gröna knapparna med ett svart kors på för att zooma in; den gröna knappen med ett streck på för att zooma ut; eller på de gröna pilarna för angränsande kartor.


METAR-TAF: